Data for 02/25/2010

Time Sea-Level Adjusted Pressure Absolute Pressure Temperature Relative Humidity Dew Point   
(mb) (inHg) (mb) (inHg) (C) (F) (%) (C) (F)
00:05 1013 29.91 843 24.89 2.2 35.9 67 -3.3 26
00:10 1013 29.91 843 24.89 2.1 35.8 68 -3.2 26.3
00:15 1013 29.91 843 24.89 2 35.6 69 -3.2 26.3
00:20 1014 29.94 843 24.89 1.9 35.3 69 -3.2 26.2
00:25 1014 29.94 843 24.89 1.7 35.1 70 -3.2 26.2
00:30 1014 29.94 843 24.89 1.7 35.1 70 -3.1 26.4
00:35 1014 29.94 843 24.89 1.6 34.9 71 -3.1 26.5
00:40 1014 29.94 843 24.89 1.6 34.9 71 -3 26.5
00:45 1014 29.94 843 24.89 1.6 34.8 72 -2.9 26.8
00:50 1014 29.94 843 24.89 1.5 34.8 72 -3 26.7
00:55 1014 29.94 843 24.89 1.5 34.7 72 -3 26.6
01:00 1014 29.94 843 24.89 1.3 34.3 73 -3 26.6
01:05 1014 29.94 843 24.89 1.1 34 73 -3.1 26.4
01:10 1014 29.94 843 24.89 1.1 34 73 -3.2 26.2
01:15 1014 29.94 843 24.89 1.2 34.2 73 -3.2 26.3
01:20 1014 29.94 843 24.89 1.1 34 73 -3.2 26.2
01:25 1014 29.94 843 24.89 1 33.8 73 -3.3 26
01:30 1014 29.94 843 24.89 0.9 33.6 73 -3.4 25.9
01:35 1014 29.94 843 24.89 0.8 33.4 73 -3.5 25.7
01:40 1014 29.94 843 24.89 0.8 33.5 73 -3.6 25.6
01:45 1014 29.94 843 24.89 0.9 33.6 71 -3.8 25.2
01:50 1014 29.94 843 24.89 0.9 33.7 70 -3.9 24.9
01:55 1014 29.94 843 24.89 0.9 33.6 70 -3.9 25
02:00 1014 29.94 843 24.89 0.9 33.6 70 -4 24.8
02:05 1014 29.94 843 24.89 0.9 33.6 70 -3.9 25
02:10 1014 29.94 844 24.92 0.8 33.4 71 -3.9 25
02:15 1014 29.94 844 24.92 0.8 33.4 70 -4.1 24.7
02:20 1015 29.97 844 24.92 0.7 33.2 70 -4.2 24.5
02:25 1015 29.97 844 24.92 0.6 33.2 69 -4.3 24.2
02:30 1015 29.97 844 24.92 0.7 33.3 69 -4.4 24.1
02:35 1015 29.97 844 24.92 0.8 33.5 68 -4.4 24.1
02:40 1015 29.97 844 24.92 0.8 33.5 68 -4.4 24
02:45 1015 29.97 844 24.92 0.8 33.4 69 -4.3 24.2
02:50 1015 29.97 844 24.92 0.7 33.3 69 -4.4 24.1
02:55 1015 29.97 844 24.92 0.7 33.2 69 -4.4 24.1
03:00 1015 29.97 844 24.92 0.5 32.9 69 -4.5 23.9
03:05 1015 29.97 844 24.92 0.2 32.3 71 -4.5 23.9
03:10 1015 29.97 844 24.92 -0.1 31.8 72 -4.6 23.7
03:15 1015 29.97 844 24.92 -0.3 31.5 71 -4.9 23.2
03:20 1015 29.97 844 24.92 -0.4 31.3 70 -5.2 22.7
03:25 1015 29.97 844 24.92 -0.4 31.3 69 -5.4 22.3
03:30 1015 29.97 844 24.92 -0.4 31.2 73 -4.7 23.6
03:35 1015 29.97 844 24.92 -1 30.2 78 -4.4 24.1
03:40 1015 29.97 844 24.92 -1.4 29.5 78 -4.7 23.6
03:45 1015 29.97 844 24.92 -1.4 29.5 78 -4.8 23.4
03:50 1015 29.97 844 24.92 -1.2 29.8 77 -4.7 23.5
03:55 1015 29.97 844 24.92 -1.2 29.8 77 -4.8 23.4
04:00 1015 29.97 844 24.92 -1.2 29.9 77 -4.8 23.4
04:05 1015 29.97 844 24.92 -1.1 30.1 76 -4.8 23.3
04:10 1015 29.97 844 24.92 -0.9 30.4 75 -4.8 23.4
04:15 1015 29.97 844 24.92 -1 30.3 75 -4.8 23.4
04:20 1015 29.97 844 24.92 -0.8 30.5 74 -4.9 23.2
04:25 1015 29.97 845 24.95 -0.7 30.8 73 -4.9 23.2
04:30 1015 29.97 845 24.95 -0.6 30.8 73 -4.9 23.2
04:35 1015 29.97 845 24.95 -0.5 31.1 72 -4.9 23.1
04:40 1015 29.97 845 24.95 -0.5 31.1 72 -4.9 23.1
04:45 1016 30 845 24.95 -0.2 31.6 70 -5.1 22.8
04:50 1016 30 845 24.95 0 32 69 -5 22.9
04:55 1016 30 845 24.95 -0.1 31.8 69 -5 22.9
05:00 1016 30 845 24.95 -0.4 31.2 72 -4.9 23.1
05:05 1016 30 845 24.95 -0.5 31 70 -5.3 22.5
05:10 1016 30 845 24.95 -0.3 31.5 70 -5.1 22.7
05:15 1016 30 845 24.95 -0.3 31.5 69 -5.2 22.6
05:20 1016 30 845 24.95 -0.4 31.2 71 -5.1 22.8
05:25 1016 30 845 24.95 -0.4 31.3 69 -5.4 22.4
05:30 1016 30 845 24.95 -0.4 31.4 68 -5.6 22
05:35 1016 30 845 24.95 -0.2 31.7 68 -5.4 22.3
05:40 1016 30 845 24.95 -0.3 31.4 70 -5.1 22.8
05:45 1016 30 845 24.95 -0.5 31 70 -5.4 22.3
05:50 1016 30 845 24.95 -0.4 31.3 69 -5.4 22.2
05:55 1016 30 845 24.95 -0.3 31.5 70 -5.1 22.8
06:00 1016 30 845 24.95 -0.5 31 68 -5.7 21.7
06:05 1016 30 845 24.95 -0.1 31.8 65 -5.9 21.3
06:10 1016 30 845 24.95 0.3 32.5 64 -5.8 21.6
06:15 1016 30 845 24.95 0.4 32.8 64 -5.6 21.9
06:20 1016 30 845 24.95 0.6 33 64 -5.5 22.2
06:25 1016 30 845 24.95 0.5 32.9 65 -5.3 22.5
06:30 1016 30 845 24.95 0.5 32.9 64 -5.5 22.1
06:35 1016 30 845 24.95 0.5 33 64 -5.4 22.2
06:40 1016 30 845 24.95 0.6 33.1 66 -5.1 22.8
06:45 1016 30 845 24.95 0.2 32.3 68 -5 22.9
06:50 1016 30 845 24.95 -0 32 68 -5.2 22.6
06:55 1016 30 845 24.95 -0 32 68 -5.1 22.7
07:00 1016 30 846 24.98 -0 31.9 68 -5.2 22.7
07:05 1016 30 846 24.98 0 32.1 68 -5.1 22.8
07:10 1016 30 846 24.98 0.1 32.2 67 -5.2 22.6
07:15 1017 30.03 846 24.98 0.2 32.3 67 -5.3 22.4
07:20 1017 30.03 846 24.98 0.2 32.3 66 -5.3 22.4
07:25 1017 30.03 846 24.98 -0 32 67 -5.5 22.1
07:30 1017 30.03 846 24.98 -0.2 31.7 67 -5.6 21.9
07:35 1017 30.03 846 24.98 -0.2 31.7 68 -5.4 22.3
07:40 1017 30.03 846 24.98 -0.1 31.8 68 -5.3 22.5
07:45 1017 30.03 846 24.98 0 32 68 -5.3 22.5
07:50 1017 30.03 846 24.98 0 32.1 67 -5.3 22.4
07:55 1017 30.03 846 24.98 0.1 32.3 67 -5.2 22.6
08:00 1017 30.03 846 24.98 0.2 32.4 67 -5.1 22.8
08:05 1017 30.03 846 24.98 0.3 32.5 67 -5.2 22.6
08:10 1017 30.03 846 24.98 0.3 32.5 67 -5.1 22.7
08:15 1017 30.03 846 24.98 0.4 32.8 67 -5.1 22.8
08:20 1017 30.03 846 24.98 0.5 32.9 67 -4.9 23.1
08:25 1017 30.03 846 24.98 0.6 33.1 68 -4.7 23.6
08:30 1017 30.03 846 24.98 0.3 32.5 69 -4.8 23.4
08:35 1017 30.03 846 24.98 0.2 32.4 70 -4.7 23.6
08:40 1017 30.03 847 25.01 0.4 32.7 69 -4.7 23.6
08:45 1017 30.03 847 25.01 0.6 33.2 66 -4.9 23.1
08:50 1017 30.03 847 25.01 0.8 33.4 65 -5.1 22.9
08:55 1017 30.03 847 25.01 1 33.8 63 -5.3 22.5
09:00 1018 30.06 847 25.01 1.4 34.5 61 -5.2 22.6
09:05 1018 30.06 847 25.01 1.7 35 60 -5.2 22.6
09:10 1018 30.06 847 25.01 1.8 35.3 60 -5.1 22.7
09:15 1018 30.06 847 25.01 2 35.6 60 -5.1 22.9
09:20 1018 30.06 847 25.01 2.1 35.8 59 -5 23
09:25 1018 30.06 847 25.01 2.1 35.8 60 -4.9 23.2
09:30 1018 30.06 847 25.01 2.4 36.3 59 -4.8 23.4
09:35 1018 30.06 847 25.01 2.6 36.7 59 -4.6 23.8
09:40 1018 30.06 847 25.01 2.8 37 57 -4.9 23.3
09:45 1018 30.06 847 25.01 2.8 37 58 -4.6 23.8
09:50 1018 30.06 847 25.01 2.9 37.2 57 -4.7 23.6
09:55 1018 30.06 847 25.01 3.2 37.7 57 -4.5 24
10:00 1018 30.06 847 25.01 3.3 38 58 -4.2 24.4
10:05 1018 30.06 847 25.01 3.3 38 56 -4.7 23.6
10:10 1018 30.06 847 25.01 3.2 37.7 56 -4.9 23.2
10:15 1018 30.06 847 25.01 2.7 36.9 57 -5 23
10:20 1018 30.06 847 25.01 2.6 36.7 57 -5 22.9
10:25 1018 30.06 847 25.01 2.9 37.2 57 -4.9 23.2
10:30 1018 30.06 847 25.01 3.1 37.6 56 -4.8 23.3
10:35 1018 30.06 847 25.01 3.3 38 55 -4.9 23.2
10:40 1018 30.06 847 25.01 3.7 38.6 53 -5 23
10:45 1018 30.06 847 25.01 3.5 38.4 54 -5 22.9
10:50 1018 30.06 847 25.01 3.6 38.6 51 -5.5 22.1
10:55 1018 30.06 848 25.04 3.8 38.9 49 -5.8 21.5
11:00 1018 30.06 848 25.04 4.1 39.3 49 -5.6 21.9
11:05 1018 30.06 848 25.04 4.2 39.5 50 -5.4 22.4
11:10 1018 30.06 848 25.04 4.4 39.9 47 -5.8 21.5
11:15 1018 30.06 848 25.04 4.3 39.7 47 -6 21.2
11:20 1018 30.06 848 25.04 4.2 39.6 46 -6.4 20.4
11:25 1018 30.06 848 25.04 4.1 39.5 46 -6.4 20.4
11:30 1019 30.09 848 25.04 4.2 39.5 44 -6.9 19.5
11:35 1019 30.09 848 25.04 4.4 39.8 45 -6.6 20.1
11:40 1019 30.09 848 25.04 4.6 40.2 44 -6.7 20
11:45 1019 30.09 848 25.04 5.1 41.1 44 -6.2 20.8
11:50 1019 30.09 848 25.04 5.3 41.5 44 -6 21.3
11:55 1019 30.09 848 25.04 5.1 41.2 43 -6.3 20.6
12:00 1019 30.09 848 25.04 5.1 41.3 44 -6.2 20.8
12:05 1019 30.09 848 25.04 5 41.1 47 -5.3 22.4
12:10 1019 30.09 848 25.04 5 40.9 45 -6.1 21.1
12:15 1019 30.09 848 25.04 5.5 41.9 43 -5.9 21.3
12:20 1019 30.09 848 25.04 5.9 42.6 41 -6.5 20.3
12:25 1019 30.09 848 25.04 6 42.8 41 -6.4 20.5
12:30 1019 30.09 848 25.04 5.9 42.6 41 -6.4 20.4
12:35 1019 30.09 848 25.04 6 42.9 40 -6.4 20.4
12:40 1019 30.09 848 25.04 5.8 42.5 38 -7.3 18.9
12:45 1019 30.09 848 25.04 6.1 43 38 -7.1 19.2
12:50 1019 30.09 848 25.04 6.3 43.3 39 -6.6 20.1
12:55 1019 30.09 848 25.04 6.2 43.1 36 -7.7 18.1
13:00 1019 30.09 848 25.04 6.1 42.9 37 -7.7 18.2
13:05 1019 30.09 848 25.04 5.9 42.7 39 -7.1 19.2
13:10 1019 30.09 848 25.04 5.9 42.6 38 -7.5 18.5
13:15 1019 30.09 848 25.04 5.5 42 39 -7.4 18.8
13:20 1019 30.09 848 25.04 5.3 41.6 41 -6.8 19.7
13:25 1019 30.09 848 25.04 5.4 41.6 41 -6.8 19.7
13:30 1019 30.09 848 25.04 5.4 41.8 41 -6.7 20
13:35 1019 30.09 848 25.04 5.5 42 41 -6.7 20
13:40 1019 30.09 848 25.04 5.6 42.1 39 -7.3 18.9
13:45 1019 30.09 848 25.04 5.5 41.8 41 -6.9 19.6
13:50 1018 30.06 848 25.04 5.5 41.9 41 -6.8 19.8
13:55 1018 30.06 848 25.04 5.6 42 39 -7.3 18.9
14:00 1018 30.06 848 25.04 6.1 42.9 38 -7 19.3
14:05 1018 30.06 848 25.04 6 42.8 40 -6.5 20.3
14:10 1018 30.06 848 25.04 6 42.9 36 -8 17.6
14:15 1018 30.06 848 25.04 5.5 41.9 39 -7.5 18.6
14:20 1018 30.06 848 25.04 5.1 41.2 39 -7.9 17.9
14:25 1018 30.06 848 25.04 4.7 40.5 42 -7.1 19.1
14:30 1018 30.06 848 25.04 4.5 40.1 41 -7.6 18.3
14:35 1018 30.06 848 25.04 4.3 39.7 43 -7.2 19
14:40 1018 30.06 848 25.04 4 39.3 43 -7.5 18.5
14:45 1018 30.06 848 25.04 4.2 39.5 41 -7.9 17.8
14:50 1018 30.06 848 25.04 4.5 40 40 -7.9 17.7
14:55 1018 30.06 848 25.04 4.5 40.2 42 -7.2 19
15:00 1018 30.06 848 25.04 4.6 40.2 41 -7.5 18.6
15:05 1018 30.06 848 25.04 4.2 39.5 40 -8.1 17.4
15:10 1018 30.06 848 25.04 3.9 39 44 -7.3 18.8
15:15 1018 30.06 848 25.04 3.9 39.1 41 -8 17.6
15:20 1018 30.06 848 25.04 4 39.2 42 -7.8 18
15:25 1018 30.06 848 25.04 4 39.3 42 -7.6 18.3
15:30 1018 30.06 848 25.04 4.4 39.9 39 -8.5 16.7
15:35 1018 30.06 848 25.04 4.6 40.3 40 -7.7 18.1
15:40 1018 30.06 848 25.04 4.2 39.5 39 -8.5 16.8
15:45 1018 30.06 848 25.04 3.9 39.1 44 -7.2 19
15:50 1018 30.06 848 25.04 3.5 38.3 45 -7.4 18.7
15:55 1018 30.06 848 25.04 3.9 39 41 -8.3 17
16:00 1018 30.06 848 25.04 4.5 40.1 40 -7.9 17.8
16:05 1018 30.06 847 25.01 4.8 40.6 39 -8 17.6
16:10 1018 30.06 847 25.01 5 41 37 -8.5 16.6
16:15 1018 30.06 847 25.01 5.2 41.4 35 -9 15.8
16:20 1018 30.06 847 25.01 5.6 42 34 -9.1 15.7
16:25 1018 30.06 848 25.04 5.9 42.5 34 -8.8 16.2
16:30 1018 30.06 848 25.04 5.8 42.5 34 -8.7 16.3
16:35 1018 30.06 848 25.04 5.3 41.6 36 -8.5 16.6
16:40 1018 30.06 848 25.04 5.2 41.3 36 -8.5 16.6
16:45 1018 30.06 848 25.04 5.2 41.4 38 -8.1 17.5
16:50 1018 30.06 848 25.04 5.4 41.7 38 -7.7 18.1
16:55 1018 30.06 848 25.04 4.7 40.5 41 -7.5 18.4
17:00 1018 30.06 848 25.04 4.1 39.3 42 -7.8 18
17:05 1018 30.06 848 25.04 3.9 39 41 -8.3 17.1
17:10 1018 30.06 848 25.04 3.5 38.3 41 -8.6 16.6
17:15 1018 30.06 848 25.04 3.4 38.2 41 -8.6 16.6
17:20 1018 30.06 848 25.04 3.6 38.4 41 -8.6 16.5
17:25 1018 30.06 848 25.04 3.7 38.7 44 -7.5 18.5
17:30 1018 30.06 848 25.04 4.1 39.3 43 -7.3 18.8
17:35 1019 30.09 848 25.04 4.2 39.6 43 -7.4 18.6
17:40 1019 30.09 848 25.04 4.2 39.6 42 -7.6 18.4
17:45 1019 30.09 848 25.04 4.2 39.5 41 -7.8 18
17:50 1019 30.09 848 25.04 4.1 39.4 42 -7.8 18
17:55 1019 30.09 848 25.04 4.1 39.4 45 -6.9 19.6
18:00 1019 30.09 848 25.04 3.9 39 47 -6.5 20.3
18:05 1019 30.09 848 25.04 3.9 39 47 -6.4 20.5
18:10 1019 30.09 848 25.04 3.3 37.9 59 -4.1 24.7
18:15 1019 30.09 848 25.04 2.7 36.9 59 -4.5 24
18:20 1019 30.09 848 25.04 2.6 36.7 62 -3.9 24.9
18:25 1019 30.09 848 25.04 2.3 36.2 64 -3.9 25.1
18:30 1019 30.09 848 25.04 2.2 36 64 -4 24.9
18:35 1019 30.09 848 25.04 2.3 36.1 65 -3.7 25.4
18:40 1019 30.09 848 25.04 2.2 35.9 65 -3.6 25.4
18:45 1019 30.09 848 25.04 2.1 35.8 68 -3.1 26.4
18:50 1019 30.09 848 25.04 1.5 34.7 72 -3 26.5
18:55 1019 30.09 848 25.04 1.1 34.1 73 -3.1 26.4
19:00 1019 30.09 848 25.04 1 33.8 72 -3.5 25.7
19:05 1019 30.09 848 25.04 1.3 34.3 72 -3.2 26.2
19:10 1019 30.09 848 25.04 1.2 34.1 75 -2.8 26.9
19:15 1019 30.09 848 25.04 1.1 34 74 -3 26.6
19:20 1019 30.09 848 25.04 1.3 34.3 73 -3 26.6
19:25 1019 30.09 849 25.07 1.2 34.1 72 -3.4 25.9
19:30 1020 30.12 849 25.07 1.4 34.5 69 -3.6 25.5
19:35 1020 30.12 849 25.07 1.6 34.9 69 -3.4 25.8
19:40 1020 30.12 849 25.07 1.5 34.6 70 -3.4 25.9
19:45 1020 30.12 849 25.07 1.5 34.7 71 -3.1 26.4
19:50 1020 30.12 849 25.07 1.4 34.5 72 -3.2 26.3
19:55 1020 30.12 849 25.07 1.3 34.3 72 -3.3 26
20:00 1020 30.12 849 25.07 1.3 34.3 72 -3.2 26.3
20:05 1020 30.12 849 25.07 1.4 34.6 71 -3.4 26
20:10 1020 30.12 849 25.07 1.5 34.7 71 -3.2 26.3
20:15 1020 30.12 849 25.07 1.4 34.6 72 -3.1 26.3
20:20 1020 30.12 849 25.07 1.3 34.4 72 -3.2 26.3
20:25 1020 30.12 849 25.07 1.2 34.2 71 -3.4 25.9
20:30 1020 30.12 849 25.07 1.2 34.1 72 -3.4 25.9
20:35 1020 30.12 849 25.07 1.2 34.1 71 -3.5 25.8
20:40 1020 30.12 849 25.07 1 33.7 72 -3.5 25.7
20:45 1020 30.12 849 25.07 0.8 33.5 71 -3.9 25
20:50 1020 30.12 849 25.07 0.8 33.4 73 -3.4 25.8
20:55 1020 30.12 849 25.07 0.6 33.1 74 -3.6 25.6
21:00 1020 30.12 849 25.07 0.5 32.9 74 -3.6 25.4
21:05 1020 30.12 849 25.07 0.5 32.8 74 -3.7 25.3
21:10 1020 30.12 849 25.07 0.5 32.9 74 -3.6 25.4
21:15 1020 30.12 849 25.07 0.6 33 71 -4.1 24.6
21:20 1020 30.12 850 25.1 1 33.9 73 -3.2 26.2
21:25 1020 30.12 850 25.1 1.1 34 78 -2.3 27.9
21:30 1020 30.12 850 25.1 1 33.9 78 -2.4 27.6
21:35 1020 30.12 850 25.1 1.1 33.9 77 -2.5 27.5
21:40 1021 30.15 850 25.1 1.1 34 79 -2.1 28.2
21:45 1021 30.15 850 25.1 0.8 33.5 83 -1.7 29
21:50 1021 30.15 850 25.1 0.6 33 86 -1.5 29.3
21:55 1021 30.15 850 25.1 0.4 32.8 84 -1.9 28.6
22:00 1021 30.15 850 25.1 0.4 32.7 84 -2.1 28.3
22:05 1021 30.15 850 25.1 0.4 32.7 82 -2.3 27.8
22:10 1021 30.15 850 25.1 0.8 33.4 76 -2.9 26.8
22:15 1021 30.15 850 25.1 1 33.8 76 -2.7 27.1
22:20 1021 30.15 850 25.1 1.1 33.9 75 -2.8 26.9
22:25 1021 30.15 850 25.1 1 33.8 77 -2.7 27.2
22:30 1021 30.15 850 25.1 0.7 33.3 77 -2.9 26.7
22:35 1021 30.15 850 25.1 0.5 32.9 77 -3.1 26.5
22:40 1021 30.15 850 25.1 0.2 32.3 80 -3 26.7
22:45 1021 30.15 850 25.1 -0 31.9 81 -3 26.6
22:50 1021 30.15 850 25.1 -0.2 31.7 82 -2.9 26.8
22:55 1021 30.15 850 25.1 -0.3 31.4 81 -3.2 26.3
23:00 1021 30.15 850 25.1 -0.5 31.2 80 -3.5 25.6
23:05 1021 30.15 850 25.1 -0.5 31 78 -4 24.9
23:10 1020 30.12 850 25.1 -0.9 30.4 78 -4.3 24.3
23:15 1020 30.12 850 25.1 -0.9 30.4 76 -4.6 23.8
23:20 1020 30.12 850 25.1 -0.7 30.8 76 -4.3 24.2
23:25 1020 30.12 850 25.1 -0.5 31.1 78 -3.9 24.9
23:30 1020 30.12 850 25.1 -0.8 30.5 78 -4.2 24.5
23:35 1020 30.12 850 25.1 -0.9 30.4 79 -4.1 24.6
23:40 1020 30.12 850 25.1 -0.9 30.5 76 -4.6 23.8
23:45 1020 30.12 850 25.1 -0.5 31.1 74 -4.7 23.6
23:50 1020 30.12 850 25.1 -0.4 31.3 74 -4.5 23.9
23:55 1020 30.12 850 25.1 -0.7 30.7 79 -4 24.8
24:00 1020 30.12 850 25.1 -1.2 29.8 75 -5 23